sensor_id;sensor_type;location;lat;lon;timestamp;pressure;altitude;pressure_sealevel;temperature;humidity
76660;BME280;65579;45.534;6.212;2022-12-18T00:01:56;99135.55;;;1.54;52.80
76660;BME280;65579;45.534;6.212;2022-12-18T00:04:22;99142.44;;;1.72;52.54
76660;BME280;65579;45.534;6.212;2022-12-18T00:06:45;99144.97;;;1.72;51.58
76660;BME280;65579;45.534;6.212;2022-12-18T00:09:11;99149.99;;;2.01;50.68
76660;BME280;65579;45.534;6.212;2022-12-18T00:11:36;99150.93;;;1.89;51.13
76660;BME280;65579;45.534;6.212;2022-12-18T00:14:02;99158.88;;;1.42;51.88
76660;BME280;65579;45.534;6.212;2022-12-18T00:16:28;99159.77;;;1.76;51.35
76660;BME280;65579;45.534;6.212;2022-12-18T00:18:54;99162.68;;;1.99;50.59
76660;BME280;65579;45.534;6.212;2022-12-18T00:21:19;99166.96;;;1.92;50.09
76660;BME280;65579;45.534;6.212;2022-12-18T00:23:44;99171.70;;;2.17;50.33
76660;BME280;65579;45.534;6.212;2022-12-18T00:26:11;99173.73;;;1.69;50.63
76660;BME280;65579;45.534;6.212;2022-12-18T00:28:36;99174.57;;;1.87;50.60
76660;BME280;65579;45.534;6.212;2022-12-18T00:31:01;99175.56;;;1.83;50.25
76660;BME280;65579;45.534;6.212;2022-12-18T00:33:24;99172.94;;;2.00;50.01
76660;BME280;65579;45.534;6.212;2022-12-18T00:35:50;99172.70;;;1.70;49.95
76660;BME280;65579;45.534;6.212;2022-12-18T00:38:15;99173.29;;;1.63;50.65
76660;BME280;65579;45.534;6.212;2022-12-18T00:40:41;99177.71;;;1.73;51.30
76660;BME280;65579;45.534;6.212;2022-12-18T00:43:06;99174.19;;;1.35;52.38
76660;BME280;65579;45.534;6.212;2022-12-18T00:45:32;99180.13;;;1.10;52.81
76660;BME280;65579;45.534;6.212;2022-12-18T00:47:58;99183.85;;;0.62;53.41
76660;BME280;65579;45.534;6.212;2022-12-18T00:50:24;99179.73;;;0.82;53.15
76660;BME280;65579;45.534;6.212;2022-12-18T00:52:48;99178.19;;;0.88;52.42
76660;BME280;65579;45.534;6.212;2022-12-18T00:55:14;99175.66;;;1.11;51.21
76660;BME280;65579;45.534;6.212;2022-12-18T00:57:39;99176.67;;;1.35;51.01
76660;BME280;65579;45.534;6.212;2022-12-18T01:00:09;99174.80;;;1.20;51.12
76660;BME280;65579;45.534;6.212;2022-12-18T01:02:31;99168.21;;;1.27;51.17
76660;BME280;65579;45.534;6.212;2022-12-18T01:04:56;99172.51;;;1.06;50.81
76660;BME280;65579;45.534;6.212;2022-12-18T01:07:21;99177.60;;;0.68;52.13
76660;BME280;65579;45.534;6.212;2022-12-18T01:09:47;99188.13;;;-0.01;55.06
76660;BME280;65579;45.534;6.212;2022-12-18T01:12:12;99188.66;;;0.25;55.16
76660;BME280;65579;45.534;6.212;2022-12-18T01:14:37;99190.00;;;0.21;54.96
76660;BME280;65579;45.534;6.212;2022-12-18T01:17:02;99192.64;;;0.08;54.09
76660;BME280;65579;45.534;6.212;2022-12-18T01:19:27;99188.76;;;0.79;52.96
76660;BME280;65579;45.534;6.212;2022-12-18T01:21:52;99187.21;;;0.73;52.35
76660;BME280;65579;45.534;6.212;2022-12-18T01:24:17;99192.20;;;0.91;52.09
76660;BME280;65579;45.534;6.212;2022-12-18T01:26:43;99195.77;;;0.84;53.68
76660;BME280;65579;45.534;6.212;2022-12-18T01:29:08;99199.57;;;0.64;55.04
76660;BME280;65579;45.534;6.212;2022-12-18T01:31:34;99201.97;;;0.49;54.63
76660;BME280;65579;45.534;6.212;2022-12-18T01:34:00;99203.60;;;0.41;54.28
76660;BME280;65579;45.534;6.212;2022-12-18T01:36:27;99209.58;;;0.67;54.37
76660;BME280;65579;45.534;6.212;2022-12-18T01:38:50;99210.31;;;0.89;53.81
76660;BME280;65579;45.534;6.212;2022-12-18T01:41:18;99207.71;;;0.93;54.03
76660;BME280;65579;45.534;6.212;2022-12-18T01:43:43;99209.49;;;0.29;55.31
76660;BME280;65579;45.534;6.212;2022-12-18T01:46:06;99209.35;;;0.58;55.02
76660;BME280;65579;45.534;6.212;2022-12-18T01:48:32;99214.75;;;0.51;54.83
76660;BME280;65579;45.534;6.212;2022-12-18T01:51:00;99212.96;;;0.46;55.16
76660;BME280;65579;45.534;6.212;2022-12-18T01:53:24;99211.93;;;0.83;54.58
76660;BME280;65579;45.534;6.212;2022-12-18T01:55:51;99209.46;;;0.72;54.46
76660;BME280;65579;45.534;6.212;2022-12-18T01:58:15;99209.67;;;0.80;54.68
76660;BME280;65579;45.534;6.212;2022-12-18T02:00:40;99205.32;;;0.69;55.05
76660;BME280;65579;45.534;6.212;2022-12-18T02:03:06;99209.33;;;0.45;55.25
76660;BME280;65579;45.534;6.212;2022-12-18T02:05:40;99214.35;;;0.57;55.39
76660;BME280;65579;45.534;6.212;2022-12-18T02:08:02;99214.98;;;0.31;55.52
76660;BME280;65579;45.534;6.212;2022-12-18T02:10:27;99215.07;;;0.56;55.93
76660;BME280;65579;45.534;6.212;2022-12-18T02:12:51;99213.26;;;0.39;55.96
76660;BME280;65579;45.534;6.212;2022-12-18T02:15:16;99212.60;;;0.47;56.91
76660;BME280;65579;45.534;6.212;2022-12-18T02:17:43;99216.09;;;0.41;56.36
76660;BME280;65579;45.534;6.212;2022-12-18T02:20:12;99212.78;;;0.02;57.06
76660;BME280;65579;45.534;6.212;2022-12-18T02:22:37;99214.96;;;-0.12;57.32
76660;BME280;65579;45.534;6.212;2022-12-18T02:25:05;99215.87;;;0.11;57.19
76660;BME280;65579;45.534;6.212;2022-12-18T02:27:20;99219.97;;;0.10;57.49
76660;BME280;65579;45.534;6.212;2022-12-18T02:29:49;99221.86;;;-0.19;58.95
76660;BME280;65579;45.534;6.212;2022-12-18T02:32:14;99222.64;;;-0.03;57.51
76660;BME280;65579;45.534;6.212;2022-12-18T02:34:39;99225.75;;;0.23;57.22
76660;BME280;65579;45.534;6.212;2022-12-18T02:37:04;99225.60;;;0.53;54.53
76660;BME280;65579;45.534;6.212;2022-12-18T02:39:29;99230.48;;;-0.66;58.31
76660;BME280;65579;45.534;6.212;2022-12-18T02:41:52;99231.41;;;-1.04;60.04
76660;BME280;65579;45.534;6.212;2022-12-18T02:44:17;99232.70;;;-1.31;60.93
76660;BME280;65579;45.534;6.212;2022-12-18T02:46:45;99238.67;;;-1.60;61.97
76660;BME280;65579;45.534;6.212;2022-12-18T02:49:17;99241.15;;;-1.34;61.49
76660;BME280;65579;45.534;6.212;2022-12-18T02:51:42;99239.44;;;-1.85;62.64
76660;BME280;65579;45.534;6.212;2022-12-18T02:54:05;99240.55;;;-1.45;61.57
76660;BME280;65579;45.534;6.212;2022-12-18T02:56:29;99241.94;;;-0.65;58.90
76660;BME280;65579;45.534;6.212;2022-12-18T02:58:58;99243.98;;;-0.50;57.17
76660;BME280;65579;45.534;6.212;2022-12-18T03:01:21;99245.41;;;-0.06;57.22
76660;BME280;65579;45.534;6.212;2022-12-18T03:03:46;99248.33;;;-0.19;57.11
76660;BME280;65579;45.534;6.212;2022-12-18T03:06:10;99251.55;;;-0.44;57.18
76660;BME280;65579;45.534;6.212;2022-12-18T03:08:36;99249.32;;;-0.13;56.74
76660;BME280;65579;45.534;6.212;2022-12-18T03:11:02;99245.35;;;0.06;56.47
76660;BME280;65579;45.534;6.212;2022-12-18T03:13:28;99246.97;;;0.06;56.01
76660;BME280;65579;45.534;6.212;2022-12-18T03:15:51;99253.40;;;0.42;54.44
76660;BME280;65579;45.534;6.212;2022-12-18T03:18:18;99254.90;;;0.15;53.54
76660;BME280;65579;45.534;6.212;2022-12-18T03:20:41;99251.60;;;-0.12;53.55
76660;BME280;65579;45.534;6.212;2022-12-18T03:23:09;99244.96;;;0.02;53.23
76660;BME280;65579;45.534;6.212;2022-12-18T03:25:31;99248.07;;;0.20;53.29
76660;BME280;65579;45.534;6.212;2022-12-18T03:27:58;99249.57;;;-0.15;54.30
76660;BME280;65579;45.534;6.212;2022-12-18T03:30:21;99245.79;;;0.45;54.45
76660;BME280;65579;45.534;6.212;2022-12-18T03:32:48;99243.02;;;0.07;54.34
76660;BME280;65579;45.534;6.212;2022-12-18T03:35:14;99248.85;;;0.40;54.10
76660;BME280;65579;45.534;6.212;2022-12-18T03:37:38;99264.25;;;-0.01;56.49
76660;BME280;65579;45.534;6.212;2022-12-18T03:40:04;99266.40;;;-0.28;57.94
76660;BME280;65579;45.534;6.212;2022-12-18T03:42:32;99264.06;;;-0.66;56.92
76660;BME280;65579;45.534;6.212;2022-12-18T03:45:00;99263.19;;;-0.24;56.27
76660;BME280;65579;45.534;6.212;2022-12-18T03:47:26;99266.03;;;-0.36;56.48
76660;BME280;65579;45.534;6.212;2022-12-18T03:49:47;99257.91;;;-1.02;57.86
76660;BME280;65579;45.534;6.212;2022-12-18T03:52:15;99261.31;;;-0.88;58.47
76660;BME280;65579;45.534;6.212;2022-12-18T03:54:39;99263.36;;;-0.62;58.23
76660;BME280;65579;45.534;6.212;2022-12-18T03:57:06;99266.48;;;-0.58;57.99
76660;BME280;65579;45.534;6.212;2022-12-18T03:59:29;99266.43;;;-1.16;59.51
76660;BME280;65579;45.534;6.212;2022-12-18T04:01:54;99263.86;;;-0.93;59.03
76660;BME280;65579;45.534;6.212;2022-12-18T04:04:19;99264.75;;;-0.59;58.40
76660;BME280;65579;45.534;6.212;2022-12-18T04:06:47;99267.50;;;-0.72;57.44
76660;BME280;65579;45.534;6.212;2022-12-18T04:09:11;99272.98;;;-0.45;56.91
76660;BME280;65579;45.534;6.212;2022-12-18T04:11:34;99274.11;;;-0.55;56.54
76660;BME280;65579;45.534;6.212;2022-12-18T04:14:00;99272.33;;;-0.91;57.37
76660;BME280;65579;45.534;6.212;2022-12-18T04:16:26;99274.32;;;-0.58;57.90
76660;BME280;65579;45.534;6.212;2022-12-18T04:18:50;99273.92;;;-0.99;58.10
76660;BME280;65579;45.534;6.212;2022-12-18T04:21:15;99274.04;;;-0.61;57.40
76660;BME280;65579;45.534;6.212;2022-12-18T04:23:40;99277.54;;;-0.29;56.60
76660;BME280;65579;45.534;6.212;2022-12-18T04:26:06;99277.15;;;-0.18;56.34
76660;BME280;65579;45.534;6.212;2022-12-18T04:28:32;99276.15;;;0.28;55.94
76660;BME280;65579;45.534;6.212;2022-12-18T04:30:57;99280.00;;;0.45;55.58
76660;BME280;65579;45.534;6.212;2022-12-18T04:33:23;99285.46;;;-0.02;55.82
76660;BME280;65579;45.534;6.212;2022-12-18T04:35:49;99292.06;;;-0.16;56.46
76660;BME280;65579;45.534;6.212;2022-12-18T04:38:14;99291.92;;;0.05;56.36
76660;BME280;65579;45.534;6.212;2022-12-18T04:40:40;99295.41;;;0.05;56.08
76660;BME280;65579;45.534;6.212;2022-12-18T04:43:05;99299.86;;;-0.06;55.28
76660;BME280;65579;45.534;6.212;2022-12-18T04:45:32;99306.57;;;0.23;55.31
76660;BME280;65579;45.534;6.212;2022-12-18T04:47:57;99303.20;;;0.18;54.76
76660;BME280;65579;45.534;6.212;2022-12-18T04:50:23;99308.88;;;0.27;55.68
76660;BME280;65579;45.534;6.212;2022-12-18T04:52:51;99311.64;;;0.33;54.41
76660;BME280;65579;45.534;6.212;2022-12-18T04:55:14;99313.35;;;0.50;54.09
76660;BME280;65579;45.534;6.212;2022-12-18T04:57:39;99319.21;;;0.08;54.97
76660;BME280;65579;45.534;6.212;2022-12-18T05:00:05;99320.15;;;-0.14;56.08
76660;BME280;65579;45.534;6.212;2022-12-18T05:02:29;99319.62;;;-0.41;58.26
76660;BME280;65579;45.534;6.212;2022-12-18T05:04:55;99322.67;;;-0.47;59.32
76660;BME280;65579;45.534;6.212;2022-12-18T05:07:21;99326.13;;;-0.39;57.60
76660;BME280;65579;45.534;6.212;2022-12-18T05:09:47;99326.64;;;-0.02;56.77
76660;BME280;65579;45.534;6.212;2022-12-18T05:12:12;99326.46;;;0.06;56.53
76660;BME280;65579;45.534;6.212;2022-12-18T05:14:38;99326.26;;;-0.06;56.22
76660;BME280;65579;45.534;6.212;2022-12-18T05:17:03;99328.51;;;-0.06;55.93
76660;BME280;65579;45.534;6.212;2022-12-18T05:19:29;99334.59;;;0.25;55.62
76660;BME280;65579;45.534;6.212;2022-12-18T05:21:54;99338.57;;;0.08;55.80
76660;BME280;65579;45.534;6.212;2022-12-18T05:24:20;99340.36;;;-0.03;56.14
76660;BME280;65579;45.534;6.212;2022-12-18T05:26:46;99342.67;;;0.20;56.19
76660;BME280;65579;45.534;6.212;2022-12-18T05:29:11;99346.63;;;-0.14;56.42
76660;BME280;65579;45.534;6.212;2022-12-18T05:31:36;99347.39;;;0.37;56.01
76660;BME280;65579;45.534;6.212;2022-12-18T05:34:02;99347.86;;;0.11;55.89
76660;BME280;65579;45.534;6.212;2022-12-18T05:36:27;99343.19;;;-0.30;56.94
76660;BME280;65579;45.534;6.212;2022-12-18T05:38:53;99341.11;;;-0.48;58.11
76660;BME280;65579;45.534;6.212;2022-12-18T05:41:18;99347.16;;;-0.77;59.71
76660;BME280;65579;45.534;6.212;2022-12-18T05:43:44;99349.30;;;-0.68;59.06
76660;BME280;65579;45.534;6.212;2022-12-18T05:46:13;99352.96;;;-0.30;58.03
76660;BME280;65579;45.534;6.212;2022-12-18T05:48:35;99355.25;;;0.19;57.14
76660;BME280;65579;45.534;6.212;2022-12-18T05:51:06;99353.15;;;0.03;55.90
76660;BME280;65579;45.534;6.212;2022-12-18T05:53:27;99352.30;;;0.17;55.85
76660;BME280;65579;45.534;6.212;2022-12-18T05:55:52;99355.84;;;0.07;55.77
76660;BME280;65579;45.534;6.212;2022-12-18T05:58:17;99359.36;;;0.34;56.10
76660;BME280;65579;45.534;6.212;2022-12-18T06:00:44;99361.15;;;-0.03;56.23
76660;BME280;65579;45.534;6.212;2022-12-18T06:03:08;99360.06;;;-0.09;57.11
76660;BME280;65579;45.534;6.212;2022-12-18T06:05:35;99364.16;;;-0.06;57.18
76660;BME280;65579;45.534;6.212;2022-12-18T06:07:59;99360.37;;;-0.41;58.08
76660;BME280;65579;45.534;6.212;2022-12-18T06:10:25;99360.19;;;-0.69;57.86
76660;BME280;65579;45.534;6.212;2022-12-18T06:12:50;99362.28;;;-0.20;56.86
76660;BME280;65579;45.534;6.212;2022-12-18T06:15:16;99365.58;;;0.14;56.07
76660;BME280;65579;45.534;6.212;2022-12-18T06:17:41;99369.43;;;-0.19;56.18
76660;BME280;65579;45.534;6.212;2022-12-18T06:20:07;99372.45;;;-0.85;57.57
76660;BME280;65579;45.534;6.212;2022-12-18T06:22:32;99375.29;;;-0.75;58.50
76660;BME280;65579;45.534;6.212;2022-12-18T06:24:57;99381.34;;;-1.24;59.33
76660;BME280;65579;45.534;6.212;2022-12-18T06:27:22;99383.35;;;-1.93;60.15
76660;BME280;65579;45.534;6.212;2022-12-18T06:29:48;99386.37;;;-2.16;61.92
76660;BME280;65579;45.534;6.212;2022-12-18T06:32:13;99390.52;;;-1.77;60.78
76660;BME280;65579;45.534;6.212;2022-12-18T06:34:39;99395.75;;;-1.58;60.20
76660;BME280;65579;45.534;6.212;2022-12-18T06:37:05;99397.72;;;-1.31;58.73
76660;BME280;65579;45.534;6.212;2022-12-18T06:39:30;99401.33;;;-0.72;57.36
76660;BME280;65579;45.534;6.212;2022-12-18T06:41:55;99403.47;;;-0.41;56.26
76660;BME280;65579;45.534;6.212;2022-12-18T06:44:21;99404.32;;;-0.59;55.04
76660;BME280;65579;45.534;6.212;2022-12-18T06:46:47;99406.03;;;-0.31;54.60
76660;BME280;65579;45.534;6.212;2022-12-18T06:49:12;99405.72;;;-0.63;54.68
76660;BME280;65579;45.534;6.212;2022-12-18T06:51:38;99416.00;;;-0.89;56.76
76660;BME280;65579;45.534;6.212;2022-12-18T06:54:04;99423.31;;;-0.78;57.40
76660;BME280;65579;45.534;6.212;2022-12-18T06:56:29;99428.40;;;-1.15;57.39
76660;BME280;65579;45.534;6.212;2022-12-18T06:58:54;99435.15;;;-0.75;56.58
76660;BME280;65579;45.534;6.212;2022-12-18T07:01:21;99433.98;;;-0.51;56.06
76660;BME280;65579;45.534;6.212;2022-12-18T07:03:46;99432.58;;;-0.28;55.82
76660;BME280;65579;45.534;6.212;2022-12-18T07:06:14;99436.70;;;-0.18;54.77
76660;BME280;65579;45.534;6.212;2022-12-18T07:08:37;99439.73;;;-0.54;55.33
76660;BME280;65579;45.534;6.212;2022-12-18T07:11:04;99445.45;;;-0.42;56.68
76660;BME280;65579;45.534;6.212;2022-12-18T07:13:28;99451.71;;;-0.73;57.07
76660;BME280;65579;45.534;6.212;2022-12-18T07:15:54;99458.70;;;-0.37;56.41
76660;BME280;65579;45.534;6.212;2022-12-18T07:18:19;99460.60;;;-0.86;57.37
76660;BME280;65579;45.534;6.212;2022-12-18T07:20:45;99457.81;;;-0.34;56.35
76660;BME280;65579;45.534;6.212;2022-12-18T07:23:10;99462.26;;;-0.78;56.15
76660;BME280;65579;45.534;6.212;2022-12-18T07:25:35;99467.93;;;-1.09;56.48
76660;BME280;65579;45.534;6.212;2022-12-18T07:28:00;99467.74;;;-1.27;56.74
76660;BME280;65579;45.534;6.212;2022-12-18T07:30:26;99470.24;;;-1.26;56.91
76660;BME280;65579;45.534;6.212;2022-12-18T07:32:51;99472.85;;;-1.19;56.70
76660;BME280;65579;45.534;6.212;2022-12-18T07:35:17;99478.18;;;-1.06;56.20
76660;BME280;65579;45.534;6.212;2022-12-18T07:37:42;99480.85;;;-1.26;56.68
76660;BME280;65579;45.534;6.212;2022-12-18T07:40:09;99484.22;;;-0.96;56.51
76660;BME280;65579;45.534;6.212;2022-12-18T07:42:33;99478.54;;;-0.76;54.81
76660;BME280;65579;45.534;6.212;2022-12-18T07:44:58;99475.52;;;-1.01;54.83
76660;BME280;65579;45.534;6.212;2022-12-18T07:47:23;99472.93;;;-1.12;55.46
76660;BME280;65579;45.534;6.212;2022-12-18T07:49:49;99476.15;;;-1.83;57.02
76660;BME280;65579;45.534;6.212;2022-12-18T07:52:14;99483.67;;;-1.73;57.45
76660;BME280;65579;45.534;6.212;2022-12-18T07:54:40;99486.88;;;-1.77;56.94
76660;BME280;65579;45.534;6.212;2022-12-18T07:57:05;99492.73;;;-2.05;57.30
76660;BME280;65579;45.534;6.212;2022-12-18T07:59:30;99495.67;;;-1.49;57.06
76660;BME280;65579;45.534;6.212;2022-12-18T08:01:57;99494.56;;;-0.91;55.90
76660;BME280;65579;45.534;6.212;2022-12-18T08:04:21;99492.49;;;-0.63;56.01
76660;BME280;65579;45.534;6.212;2022-12-18T08:06:46;99488.65;;;-0.59;54.15
76660;BME280;65579;45.534;6.212;2022-12-18T08:09:12;99485.40;;;-0.54;53.94
76660;BME280;65579;45.534;6.212;2022-12-18T08:11:38;99484.48;;;-0.49;54.11
76660;BME280;65579;45.534;6.212;2022-12-18T08:14:04;99481.05;;;-0.52;54.72
76660;BME280;65579;45.534;6.212;2022-12-18T08:16:29;99476.18;;;-0.53;54.53
76660;BME280;65579;45.534;6.212;2022-12-18T08:18:54;99477.46;;;-0.58;54.66
76660;BME280;65579;45.534;6.212;2022-12-18T08:21:21;99478.07;;;-0.47;54.49
76660;BME280;65579;45.534;6.212;2022-12-18T08:23:45;99477.79;;;-0.57;54.75
76660;BME280;65579;45.534;6.212;2022-12-18T08:26:11;99476.83;;;-0.79;55.22
76660;BME280;65579;45.534;6.212;2022-12-18T08:28:36;99470.13;;;-0.48;54.60
76660;BME280;65579;45.534;6.212;2022-12-18T08:31:01;99469.38;;;-0.78;54.81
76660;BME280;65579;45.534;6.212;2022-12-18T08:33:27;99474.51;;;-0.84;55.26
76660;BME280;65579;45.534;6.212;2022-12-18T08:35:53;99475.97;;;-1.97;57.80
76660;BME280;65579;45.534;6.212;2022-12-18T08:38:18;99473.23;;;-1.78;58.46
76660;BME280;65579;45.534;6.212;2022-12-18T08:40:43;99470.55;;;-1.52;57.90
76660;BME280;65579;45.534;6.212;2022-12-18T08:43:09;99475.13;;;-2.56;59.06
76660;BME280;65579;45.534;6.212;2022-12-18T08:45:34;99469.32;;;-2.66;59.76
76660;BME280;65579;45.534;6.212;2022-12-18T08:48:02;99463.17;;;-2.25;59.37
76660;BME280;65579;45.534;6.212;2022-12-18T08:50:25;99465.05;;;-2.22;58.43
76660;BME280;65579;45.534;6.212;2022-12-18T08:52:50;99467.22;;;-1.65;57.60
76660;BME280;65579;45.534;6.212;2022-12-18T08:55:16;99468.98;;;-1.90;58.41
76660;BME280;65579;45.534;6.212;2022-12-18T08:57:42;99469.87;;;-1.26;57.64
76660;BME280;65579;45.534;6.212;2022-12-18T09:00:10;99466.42;;;-1.58;57.95
76660;BME280;65579;45.534;6.212;2022-12-18T09:02:33;99470.79;;;-1.46;57.08
76660;BME280;65579;45.534;6.212;2022-12-18T09:04:58;99468.50;;;-1.80;57.41
76660;BME280;65579;45.534;6.212;2022-12-18T09:07:24;99462.81;;;-1.26;56.13
76660;BME280;65579;45.534;6.212;2022-12-18T09:09:50;99466.03;;;-0.98;54.07
76660;BME280;65579;45.534;6.212;2022-12-18T09:12:15;99464.86;;;-1.07;53.98
76660;BME280;65579;45.534;6.212;2022-12-18T09:14:40;99467.03;;;-1.46;54.58
76660;BME280;65579;45.534;6.212;2022-12-18T09:17:06;99468.03;;;-0.80;54.49
76660;BME280;65579;45.534;6.212;2022-12-18T09:19:31;99461.96;;;-0.59;54.26
76660;BME280;65579;45.534;6.212;2022-12-18T09:21:56;99458.59;;;-0.74;53.81
76660;BME280;65579;45.534;6.212;2022-12-18T09:24:22;99459.77;;;-1.02;54.20
76660;BME280;65579;45.534;6.212;2022-12-18T09:26:47;99464.15;;;-2.37;58.12
76660;BME280;65579;45.534;6.212;2022-12-18T09:29:13;99463.75;;;-3.76;62.27
76660;BME280;65579;45.534;6.212;2022-12-18T09:31:38;99461.64;;;-3.64;62.23
76660;BME280;65579;45.534;6.212;2022-12-18T09:34:04;99468.27;;;-4.19;66.07
76660;BME280;65579;45.534;6.212;2022-12-18T09:36:29;99471.41;;;-3.46;64.71
76660;BME280;65579;45.534;6.212;2022-12-18T09:38:55;99474.54;;;-2.82;63.31
76660;BME280;65579;45.534;6.212;2022-12-18T09:41:33;99471.70;;;-1.83;59.74
76660;BME280;65579;45.534;6.212;2022-12-18T09:43:48;99466.65;;;-1.38;55.81
76660;BME280;65579;45.534;6.212;2022-12-18T09:46:17;99468.26;;;-1.14;53.65
76660;BME280;65579;45.534;6.212;2022-12-18T09:48:40;99474.42;;;-1.22;54.03
76660;BME280;65579;45.534;6.212;2022-12-18T09:51:08;99476.75;;;-0.96;53.51
76660;BME280;65579;45.534;6.212;2022-12-18T09:53:33;99469.47;;;-1.26;52.93
76660;BME280;65579;45.534;6.212;2022-12-18T09:55:55;99464.55;;;-1.14;53.18
76660;BME280;65579;45.534;6.212;2022-12-18T09:58:26;99464.79;;;-0.79;52.64
76660;BME280;65579;45.534;6.212;2022-12-18T10:00:45;99469.12;;;-1.03;53.11
76660;BME280;65579;45.534;6.212;2022-12-18T10:03:13;99468.87;;;-1.51;53.81
76660;BME280;65579;45.534;6.212;2022-12-18T10:05:41;99465.52;;;-1.30;53.80
76660;BME280;65579;45.534;6.212;2022-12-18T10:08:07;99463.56;;;-1.53;54.03
76660;BME280;65579;45.534;6.212;2022-12-18T10:10:33;99465.92;;;-1.43;54.24
76660;BME280;65579;45.534;6.212;2022-12-18T10:12:56;99462.87;;;-1.51;54.87
76660;BME280;65579;45.534;6.212;2022-12-18T10:15:23;99456.85;;;-1.31;53.72
76660;BME280;65579;45.534;6.212;2022-12-18T10:17:54;99457.32;;;-1.65;53.95
76660;BME280;65579;45.534;6.212;2022-12-18T10:20:14;99456.98;;;-1.89;55.44
76660;BME280;65579;45.534;6.212;2022-12-18T10:22:43;99461.00;;;-2.71;58.12
76660;BME280;65579;45.534;6.212;2022-12-18T10:25:04;99464.33;;;-2.76;60.16
76660;BME280;65579;45.534;6.212;2022-12-18T10:27:27;99461.75;;;-1.65;57.23
76660;BME280;65579;45.534;6.212;2022-12-18T10:29:51;99464.21;;;-1.03;55.52
76660;BME280;65579;45.534;6.212;2022-12-18T10:32:18;99462.98;;;-0.74;53.66
76660;BME280;65579;45.534;6.212;2022-12-18T10:34:45;99461.53;;;-0.33;52.96
76660;BME280;65579;45.534;6.212;2022-12-18T10:37:12;99455.72;;;-0.57;52.29
76660;BME280;65579;45.534;6.212;2022-12-18T10:39:33;99454.67;;;-0.73;52.58
76660;BME280;65579;45.534;6.212;2022-12-18T10:44:24;99450.82;;;-0.36;52.42
76660;BME280;65579;45.534;6.212;2022-12-18T10:46:51;99453.59;;;-0.46;52.47
76660;BME280;65579;45.534;6.212;2022-12-18T10:49:22;99450.27;;;-0.01;51.83
76660;BME280;65579;45.534;6.212;2022-12-18T10:51:40;99451.02;;;-0.02;52.06
76660;BME280;65579;45.534;6.212;2022-12-18T10:54:12;99449.53;;;0.03;52.20
76660;BME280;65579;45.534;6.212;2022-12-18T10:56:33;99447.61;;;0.09;52.77
76660;BME280;65579;45.534;6.212;2022-12-18T10:59:03;99443.30;;;-0.14;53.12
76660;BME280;65579;45.534;6.212;2022-12-18T11:01:29;99437.98;;;0.05;53.14
76660;BME280;65579;45.534;6.212;2022-12-18T11:04:04;99433.13;;;0.04;53.18
76660;BME280;65579;45.534;6.212;2022-12-18T11:06:18;99422.04;;;-0.05;52.94
76660;BME280;65579;45.534;6.212;2022-12-18T11:08:44;99420.07;;;0.53;52.82
76660;BME280;65579;45.534;6.212;2022-12-18T11:11:18;99420.15;;;0.33;53.10
76660;BME280;65579;45.534;6.212;2022-12-18T11:13:34;99421.79;;;0.41;52.87
76660;BME280;65579;45.534;6.212;2022-12-18T11:16:01;99418.90;;;0.79;52.53
76660;BME280;65579;45.534;6.212;2022-12-18T11:18:27;99416.74;;;0.58;52.18
76660;BME280;65579;45.534;6.212;2022-12-18T11:20:54;99417.16;;;0.94;52.79
76660;BME280;65579;45.534;6.212;2022-12-18T11:23:13;99414.77;;;0.81;52.96
76660;BME280;65579;45.534;6.212;2022-12-18T11:25:39;99412.09;;;1.00;53.16
76660;BME280;65579;45.534;6.212;2022-12-18T11:28:04;99409.37;;;0.55;53.52
76660;BME280;65579;45.534;6.212;2022-12-18T11:30:29;99404.89;;;0.67;53.81
76660;BME280;65579;45.534;6.212;2022-12-18T11:32:57;99409.32;;;0.75;53.54
76660;BME280;65579;45.534;6.212;2022-12-18T11:35:21;99408.33;;;0.95;53.65
76660;BME280;65579;45.534;6.212;2022-12-18T11:37:48;99402.27;;;0.67;54.26
76660;BME280;65579;45.534;6.212;2022-12-18T11:40:14;99398.23;;;0.83;53.95
76660;BME280;65579;45.534;6.212;2022-12-18T11:42:39;99403.04;;;0.66;54.02
76660;BME280;65579;45.534;6.212;2022-12-18T11:45:04;99406.51;;;0.90;53.95
76660;BME280;65579;45.534;6.212;2022-12-18T11:47:31;99405.31;;;1.17;53.39
76660;BME280;65579;45.534;6.212;2022-12-18T11:49:52;99393.46;;;0.97;54.08
76660;BME280;65579;45.534;6.212;2022-12-18T11:52:21;99381.88;;;1.08;54.67
76660;BME280;65579;45.534;6.212;2022-12-18T11:54:42;99378.73;;;1.05;54.78
76660;BME280;65579;45.534;6.212;2022-12-18T11:57:14;99372.44;;;1.56;54.04
76660;BME280;65579;45.534;6.212;2022-12-18T11:59:37;99370.79;;;1.32;54.13
76660;BME280;65579;45.534;6.212;2022-12-18T12:04:38;99362.71;;;1.83;54.24
76660;BME280;65579;45.534;6.212;2022-12-18T12:06:56;99360.35;;;1.73;53.25
76660;BME280;65579;45.534;6.212;2022-12-18T12:09:20;99358.14;;;1.81;53.63
76660;BME280;65579;45.534;6.212;2022-12-18T12:11:50;99355.20;;;2.21;53.32
76660;BME280;65579;45.534;6.212;2022-12-18T12:14:18;99349.50;;;2.08;53.62
76660;BME280;65579;45.534;6.212;2022-12-18T12:16:37;99343.89;;;2.06;53.42
76660;BME280;65579;45.534;6.212;2022-12-18T12:19:06;99337.27;;;2.01;53.67
76660;BME280;65579;45.534;6.212;2022-12-18T12:21:26;99333.06;;;2.15;53.59
76660;BME280;65579;45.534;6.212;2022-12-18T12:23:54;99334.98;;;1.88;52.69
76660;BME280;65579;45.534;6.212;2022-12-18T12:26:18;99332.21;;;1.99;52.59
76660;BME280;65579;45.534;6.212;2022-12-18T12:28:59;99326.41;;;1.98;52.89
76660;BME280;65579;45.534;6.212;2022-12-18T12:31:11;99323.26;;;1.85;53.50
76660;BME280;65579;45.534;6.212;2022-12-18T12:33:38;99317.33;;;2.24;53.91
76660;BME280;65579;45.534;6.212;2022-12-18T12:36:00;99313.88;;;2.25;52.97
76660;BME280;65579;45.534;6.212;2022-12-18T12:38:22;99315.36;;;2.58;51.16
76660;BME280;65579;45.534;6.212;2022-12-18T12:40:49;99317.28;;;2.52;50.37
76660;BME280;65579;45.534;6.212;2022-12-18T12:43:21;99318.74;;;2.54;52.06
76660;BME280;65579;45.534;6.212;2022-12-18T12:45:39;99317.70;;;2.76;53.53
76660;BME280;65579;45.534;6.212;2022-12-18T12:48:04;99312.99;;;2.65;53.61
76660;BME280;65579;45.534;6.212;2022-12-18T12:50:28;99310.21;;;3.30;53.74
76660;BME280;65579;45.534;6.212;2022-12-18T12:52:55;99307.95;;;2.69;53.25
76660;BME280;65579;45.534;6.212;2022-12-18T12:55:21;99304.61;;;2.93;52.70
76660;BME280;65579;45.534;6.212;2022-12-18T12:57:48;99302.86;;;2.79;49.84
76660;BME280;65579;45.534;6.212;2022-12-18T13:00:14;99303.95;;;2.96;49.02